Terminal Aerodrome Forecast
Issued by NWS North Platte, NE

Home | Current Version | Previous Version | Graphics & Text | Print | Product List | Glossary On
Versions: 1 2 3 4 5 6 7 8 9 10 11 12 13 14 15 16 17 18 19
000
FTUS43 KLBF 281100 RRA
TAFVTN
TAF
KVTN 281142Z 2812/2912 15006KT P6SM BKN120
     FM281800 18008KT P6SM BKN120
      TEMPO 2820/2824 P6SM -TSRA BKN050CB
     FM290000 21008KT P6SM BKN050 OVC250
      TEMPO 2902/2905 P6SM -TSRA BKN050CB=

USA.gov is the U.S. government's official web portal to all federal, state and local government web resources and services.